Sitka Rocky Gutierrez Airport Sitka US
ICAO: PASI
IATA:
Category: Medium
Scheduled Services:

Elevation: 21 ft
TransAlt. 18000 ft.

Airport Communications:
ATIS:135.9
ANCHORAGE CNTR:126.1
CTAF:123.6
RDO:123.6
TWEB:113.8
SITKA AIR:34.5
UNICOM:122.95

PASI Zoom In..

If you have problems with the map follow the link
https://www.worldairports.se/pages/airport.php?
ICAO=PASI

Runways:

(A) RW 11 length 6500 ft width 150 ft
---- / hdg 116

(B) RW 29 length 6500 ft width 150 ft
---- / hdg 296

Location; PASI
Day. 25 / Time. 22.26 Zulu
* Altimeter: 29.25
* Temperature: 05° c. 41°f.
* Wind from: 100° Speed 19 kn with Gusts up to 24 kn.
Dewpoint: 01° c.
Visibility: 5 Statute Miles.
Clouds: Overcast 2900 ft.
Conditions: Light Rain.

PASI 252226Z 10019G24KT 5SM -RA OVC029 05/01 A2925 RMK AO2 P0002 T00500011


Wind From 100°
Speed 19 kn.

 
 
jpsmedia worldairports.se 2020   terms of use